createdAt,value
2017-09-10T00:01:23.448Z,73.60
2017-09-10T00:03:53.957Z,73.60
2017-09-10T00:06:25.831Z,73.70
2017-09-10T00:08:56.348Z,73.60
2017-09-10T00:11:26.984Z,73.50
2017-09-10T00:13:57.949Z,73.70
2017-09-10T00:16:28.040Z,73.30
2017-09-10T00:18:58.361Z,73.70
2017-09-10T00:21:29.254Z,73.50
2017-09-10T00:24:00.437Z,73.00
2017-09-10T00:26:31.646Z,73.50
2017-09-10T00:29:01.889Z,73.50
2017-09-10T00:31:33.013Z,73.30
2017-09-10T00:34:04.354Z,72.90
2017-09-10T00:36:34.679Z,72.90
2017-09-10T00:39:05.426Z,73.10
2017-09-10T00:41:36.645Z,73.00
2017-09-10T00:44:07.979Z,73.00
2017-09-10T00:46:38.162Z,72.90
2017-09-10T00:49:08.443Z,73.20
2017-09-10T00:51:38.796Z,72.90
2017-09-10T00:54:09.356Z,73.00
2017-09-10T00:56:44.461Z,73.10
2017-09-10T00:59:15.488Z,73.10
2017-09-10T01:01:45.925Z,73.10
2017-09-10T01:04:17.069Z,73.30
2017-09-10T01:06:47.387Z,73.30
2017-09-10T01:09:18.211Z,72.90
2017-09-10T01:11:48.461Z,73.20
2017-09-10T01:14:19.342Z,73.30
2017-09-10T01:16:50.338Z,73.00
2017-09-10T01:19:20.749Z,73.00
2017-09-10T01:21:51.248Z,73.10
2017-09-10T01:24:21.630Z,73.00
2017-09-10T01:26:52.705Z,73.10
2017-09-10T01:29:23.081Z,72.90
2017-09-10T01:31:53.343Z,72.80
2017-09-10T01:34:23.445Z,73.10
2017-09-10T01:36:53.758Z,73.00
2017-09-10T01:39:24.062Z,72.60
2017-09-10T01:41:55.034Z,72.90
2017-09-10T01:44:25.154Z,72.90
2017-09-10T01:46:55.305Z,72.80
2017-09-10T01:49:25.569Z,72.40
2017-09-10T01:51:56.531Z,73.20
2017-09-10T01:54:26.814Z,72.60
2017-09-10T01:56:57.826Z,72.50
2017-09-10T01:59:28.087Z,72.50
2017-09-10T02:01:58.256Z,72.80
2017-09-10T02:04:28.710Z,72.20
2017-09-10T02:06:59.036Z,72.30
2017-09-10T02:09:29.374Z,72.40
2017-09-10T02:12:00.515Z,72.60
2017-09-10T02:14:30.871Z,72.60
2017-09-10T02:17:01.214Z,72.40
2017-09-10T02:19:31.373Z,72.70
2017-09-10T02:22:01.599Z,72.80
2017-09-10T02:24:32.109Z,73.00
2017-09-10T02:27:02.364Z,72.80
2017-09-10T02:29:32.914Z,72.80
2017-09-10T02:32:03.183Z,72.40
2017-09-10T02:34:34.472Z,72.70
2017-09-10T02:37:05.601Z,72.60
2017-09-10T02:39:36.533Z,72.20
2017-09-10T02:42:07.546Z,72.80
2017-09-10T02:44:37.687Z,72.70
2017-09-10T02:47:07.943Z,72.70
2017-09-10T02:49:38.038Z,72.70
2017-09-10T02:52:09.030Z,72.20
2017-09-10T02:54:39.288Z,72.20
2017-09-10T02:57:10.223Z,72.10
2017-09-10T02:59:40.724Z,72.30
2017-09-10T03:02:11.098Z,71.70
2017-09-10T03:04:57.047Z,72.40
2017-09-10T03:07:27.147Z,72.30
2017-09-10T03:09:57.892Z,72.00
2017-09-10T03:12:29.952Z,72.10
2017-09-10T03:15:01.162Z,71.90
2017-09-10T03:17:31.481Z,71.90
2017-09-10T03:20:02.661Z,72.10
2017-09-10T03:22:34.005Z,72.40
2017-09-10T03:25:05.376Z,72.20
2017-09-10T03:27:37.267Z,72.30
2017-09-10T03:30:08.629Z,72.30
2017-09-10T03:32:39.154Z,72.40
2017-09-10T03:35:09.484Z,72.20
2017-09-10T03:37:41.753Z,72.30
2017-09-10T03:40:12.746Z,72.20
2017-09-10T03:42:43.230Z,72.20
2017-09-10T03:45:14.154Z,72.10
2017-09-10T03:47:46.132Z,72.20
2017-09-10T03:50:17.957Z,72.30
2017-09-10T03:52:49.221Z,72.40
2017-09-10T03:55:19.690Z,72.30
2017-09-10T03:57:50.721Z,72.20
2017-09-10T04:00:21.138Z,72.40
2017-09-10T04:02:51.674Z,72.40
2017-09-10T04:05:22.137Z,72.60
2017-09-10T04:07:54.427Z,72.70
2017-09-10T04:10:26.034Z,73.70
2017-09-10T04:12:56.780Z,72.90
2017-09-10T04:15:27.214Z,72.80
2017-09-10T04:17:57.684Z,72.80
2017-09-10T04:20:27.886Z,72.70
2017-09-10T04:22:59.513Z,72.90
2017-09-10T04:25:30.847Z,73.10
2017-09-10T04:28:01.375Z,72.90
2017-09-10T04:30:32.843Z,73.00
2017-09-10T04:33:03.193Z,72.90
2017-09-10T04:35:34.713Z,73.20
2017-09-10T04:38:05.978Z,73.20
2017-09-10T04:40:37.407Z,73.40
2017-09-10T04:43:08.873Z,73.40
2017-09-10T04:45:39.978Z,73.40
2017-09-10T04:48:10.343Z,73.30
2017-09-10T04:50:40.493Z,73.50
2017-09-10T04:53:10.932Z,73.60
2017-09-10T04:55:41.527Z,73.80
2017-09-10T04:58:13.482Z,74.00
2017-09-10T05:00:45.137Z,73.80
2017-09-10T05:03:15.554Z,74.20
2017-09-10T05:05:48.189Z,74.20
2017-09-10T05:08:20.248Z,74.10
2017-09-10T05:10:50.738Z,74.30
2017-09-10T05:13:21.263Z,74.80
2017-09-10T05:15:52.009Z,74.30
2017-09-10T05:18:23.463Z,74.40
2017-09-10T05:20:54.868Z,74.40
2017-09-10T05:23:25.213Z,74.40
2017-09-10T05:25:55.709Z,74.60
2017-09-10T05:28:26.177Z,74.70
2017-09-10T05:31:00.931Z,75.00
2017-09-10T05:33:31.847Z,75.00
2017-09-10T05:36:02.921Z,75.00
2017-09-10T05:38:33.298Z,75.20
2017-09-10T05:41:04.108Z,75.20
2017-09-10T05:43:35.804Z,75.50
2017-09-10T05:46:07.171Z,75.30
2017-09-10T05:48:38.195Z,75.60
2017-09-10T05:51:09.731Z,75.80
2017-09-10T05:53:40.291Z,75.80
2017-09-10T05:56:10.878Z,75.80
2017-09-10T05:58:43.206Z,75.90
2017-09-10T06:01:14.937Z,75.90
2017-09-10T06:03:47.419Z,76.10
2017-09-10T06:06:19.522Z,76.20
2017-09-10T06:08:50.651Z,76.30
2017-09-10T06:11:20.974Z,76.40
2017-09-10T06:13:51.207Z,76.20
2017-09-10T06:16:21.684Z,76.60
2017-09-10T06:18:53.870Z,76.90
2017-09-10T06:21:26.002Z,77.10
2017-09-10T06:23:57.705Z,77.10
2017-09-10T06:26:31.228Z,77.20
2017-09-10T06:29:02.101Z,77.30
2017-09-10T06:31:32.654Z,77.30
2017-09-10T06:34:05.920Z,77.50
2017-09-10T06:36:37.743Z,77.50
2017-09-10T06:39:08.243Z,77.50
2017-09-10T06:41:39.781Z,77.70
2017-09-10T06:44:10.423Z,77.60
2017-09-10T06:46:41.620Z,78.00
2017-09-10T06:49:12.286Z,78.00
2017-09-10T06:51:44.733Z,77.80
2017-09-10T06:54:16.188Z,78.20
2017-09-10T06:56:47.845Z,78.20
2017-09-10T06:59:19.181Z,78.10
2017-09-10T07:01:50.869Z,78.40
2017-09-10T07:04:21.355Z,78.40
2017-09-10T07:06:51.641Z,78.50
2017-09-10T07:09:22.146Z,78.50
2017-09-10T07:11:52.539Z,78.60
2017-09-10T07:14:25.531Z,78.90
2017-09-10T07:16:56.321Z,79.40
2017-09-10T07:19:27.610Z,79.20
2017-09-10T07:21:58.234Z,79.40
2017-09-10T07:24:29.346Z,80.70
2017-09-10T07:26:59.629Z,80.50
2017-09-10T07:29:30.387Z,80.40
2017-09-10T07:32:00.960Z,80.40
2017-09-10T07:34:33.365Z,81.20
2017-09-10T07:37:03.797Z,81.20
2017-09-10T07:39:34.362Z,81.20
2017-09-10T07:42:05.065Z,81.00
2017-09-10T07:44:36.078Z,81.40
2017-09-10T07:47:08.607Z,82.10
2017-09-10T07:49:39.784Z,82.00
2017-09-10T07:52:10.881Z,82.50
2017-09-10T07:54:42.279Z,82.50
2017-09-10T07:57:13.934Z,82.30
2017-09-10T07:59:44.271Z,82.20
2017-09-10T08:02:14.573Z,82.70
2017-09-10T08:04:46.183Z,82.70
2017-09-10T08:07:28.761Z,81.40
2017-09-10T08:10:10.359Z,81.80
2017-09-10T08:12:43.316Z,83.00
2017-09-10T08:15:14.502Z,83.20
2017-09-10T08:17:47.182Z,83.40
2017-09-10T08:20:19.701Z,82.70
2017-09-10T08:22:51.221Z,83.30
2017-09-10T08:25:22.402Z,81.00
2017-09-10T08:27:52.826Z,80.90
2017-09-10T08:30:24.392Z,79.60
2017-09-10T08:32:55.697Z,79.00
2017-09-10T08:35:27.078Z,78.70
2017-09-10T08:37:57.807Z,77.70
2017-09-10T08:40:29.279Z,77.60
2017-09-10T08:43:01.252Z,77.50
2017-09-10T08:45:32.425Z,77.50
2017-09-10T08:48:02.907Z,77.50
2017-09-10T08:50:33.467Z,77.40
2017-09-10T08:53:07.712Z,76.50
2017-09-10T08:55:40.423Z,76.50
2017-09-10T08:58:11.097Z,76.50
2017-09-10T09:00:41.752Z,76.10
2017-09-10T09:03:12.160Z,76.30
2017-09-10T09:05:42.548Z,75.80
2017-09-10T09:08:13.732Z,76.60
2017-09-10T09:10:44.172Z,76.60
2017-09-10T09:13:15.439Z,76.50
2017-09-10T09:15:46.548Z,75.70
2017-09-10T09:18:18.313Z,75.50
2017-09-10T09:20:48.798Z,75.30
2017-09-10T09:23:20.649Z,75.40
2017-09-10T09:25:51.310Z,75.00
2017-09-10T09:28:23.595Z,74.70
2017-09-10T09:30:54.429Z,73.80
2017-09-10T09:33:27.690Z,73.90
2017-09-10T09:36:01.281Z,74.10
2017-09-10T09:38:35.616Z,73.90
2017-09-10T09:41:07.596Z,73.80
2017-09-10T09:43:41.616Z,73.30
2017-09-10T09:46:14.356Z,73.20
2017-09-10T09:48:48.311Z,73.80
2017-09-10T09:51:21.885Z,73.10
2017-09-10T09:53:54.140Z,72.90
2017-09-10T09:56:26.133Z,73.20
2017-09-10T09:58:56.746Z,73.40
2017-09-10T10:01:27.760Z,73.50
2017-09-10T10:03:58.235Z,73.30
2017-09-10T10:06:30.171Z,73.30
2017-09-10T10:09:00.663Z,72.70
2017-09-10T10:11:31.432Z,73.20
2017-09-10T10:14:03.199Z,72.90
2017-09-10T10:16:36.242Z,73.50
2017-09-10T10:19:10.252Z,73.60
2017-09-10T10:21:40.803Z,73.60
2017-09-10T10:24:12.808Z,70.80
2017-09-10T11:10:27.503Z,69.70
2017-09-10T11:12:58.558Z,67.60
2017-09-10T11:15:30.064Z,67.70
2017-09-10T11:18:00.691Z,67.10
2017-09-10T11:20:32.562Z,65.00
2017-09-10T11:23:03.263Z,65.00
2017-09-10T11:25:35.255Z,65.50
2017-09-10T11:28:07.469Z,64.80
2017-09-10T11:30:40.374Z,65.00
2017-09-10T11:33:12.242Z,65.00
2017-09-10T11:35:44.778Z,64.90
2017-09-10T11:38:16.937Z,63.60
2017-09-10T11:40:48.829Z,64.30
2017-09-10T11:43:19.660Z,64.60
2017-09-10T11:45:51.141Z,64.70
2017-09-10T11:48:23.156Z,64.30
2017-09-10T11:50:54.695Z,64.10
2017-09-10T11:53:26.490Z,62.10
2017-09-10T11:55:59.118Z,63.80
2017-09-10T11:58:32.276Z,63.90
2017-09-10T12:01:04.857Z,64.10
2017-09-10T12:03:39.984Z,64.30
2017-09-10T12:06:13.752Z,64.60
2017-09-10T12:08:47.883Z,63.60
2017-09-10T12:11:20.079Z,63.60
2017-09-10T12:13:53.327Z,63.70
2017-09-10T12:16:26.269Z,62.80
2017-09-10T12:19:00.416Z,62.20
2017-09-10T12:21:31.390Z,62.20
2017-09-10T12:24:04.287Z,62.50
2017-09-10T12:26:37.378Z,63.10
2017-09-10T12:29:11.692Z,62.10
2017-09-10T12:31:45.378Z,62.10
2017-09-10T12:34:20.351Z,62.20
2017-09-10T12:36:54.436Z,62.90
2017-09-10T12:39:28.731Z,62.40
2017-09-10T12:42:02.966Z,62.60
2017-09-10T12:44:36.453Z,62.50
2017-09-10T12:47:11.721Z,61.90
2017-09-10T12:49:45.616Z,62.00
2017-09-10T12:52:19.911Z,61.90
2017-09-10T12:54:54.700Z,62.20
2017-09-10T12:57:29.441Z,62.70
2017-09-10T13:00:03.756Z,62.60
2017-09-10T13:02:38.492Z,63.20
2017-09-10T13:05:12.053Z,62.50
2017-09-10T13:07:45.721Z,62.90
2017-09-10T13:10:19.845Z,63.40
2017-09-10T13:12:53.735Z,64.20
2017-09-10T13:15:27.655Z,63.30
2017-09-10T13:18:01.444Z,63.00
2017-09-10T13:20:36.045Z,63.30
2017-09-10T13:23:13.233Z,64.10
2017-09-10T13:25:48.411Z,64.50
2017-09-10T13:28:22.788Z,64.80
2017-09-10T13:30:56.481Z,64.20
2017-09-10T13:33:30.921Z,64.00
2017-09-10T13:36:04.544Z,63.70
2017-09-10T13:38:38.905Z,63.90
2017-09-10T13:41:14.916Z,63.70
2017-09-10T13:43:49.666Z,62.60
2017-09-10T13:46:23.314Z,62.50
2017-09-10T13:48:57.960Z,63.30
2017-09-10T13:51:33.275Z,63.20
2017-09-10T13:54:08.950Z,63.00
2017-09-10T13:56:44.004Z,63.30
2017-09-10T13:59:18.713Z,63.00
2017-09-10T14:01:53.828Z,63.00
2017-09-10T14:04:28.340Z,63.30
2017-09-10T14:07:02.125Z,63.30
2017-09-10T14:09:36.217Z,63.80
2017-09-10T14:12:10.100Z,63.90
2017-09-10T14:14:44.609Z,63.60
2017-09-10T14:17:19.319Z,63.50
2017-09-10T14:19:54.121Z,63.90
2017-09-10T14:22:27.734Z,63.80
2017-09-10T14:25:04.975Z,64.10
2017-09-10T14:27:39.614Z,64.10
2017-09-10T14:30:14.481Z,64.40
2017-09-10T14:32:51.045Z,64.50
2017-09-10T14:35:25.584Z,64.60
2017-09-10T14:37:59.863Z,63.80
2017-09-10T14:40:36.163Z,63.70
2017-09-10T14:43:12.578Z,63.50
2017-09-10T14:45:47.548Z,63.60
2017-09-10T14:48:23.129Z,63.20
2017-09-10T14:50:58.111Z,63.30
2017-09-10T14:53:32.622Z,63.30
2017-09-10T14:56:07.915Z,63.40
2017-09-10T14:58:42.642Z,63.70
2017-09-10T15:01:22.930Z,63.80
2017-09-10T15:03:56.636Z,64.60
2017-09-10T15:06:30.324Z,64.40
2017-09-10T15:09:04.999Z,64.30
2017-09-10T15:11:39.302Z,63.70
2017-09-10T15:14:14.698Z,63.80
2017-09-10T15:16:49.525Z,63.80
2017-09-10T15:19:23.056Z,64.40
2017-09-10T15:21:57.581Z,64.80
2017-09-10T15:24:30.641Z,64.70
2017-09-10T15:27:04.962Z,64.30
2017-09-10T15:29:41.024Z,64.20
2017-09-10T15:32:15.728Z,64.40
2017-09-10T15:34:49.482Z,64.50
2017-09-10T15:37:22.897Z,64.90
2017-09-10T15:39:56.840Z,64.20
2017-09-10T15:42:30.899Z,63.90
2017-09-10T15:45:04.694Z,63.80
2017-09-10T15:47:38.428Z,63.30
2017-09-10T15:50:13.800Z,63.60
2017-09-10T15:52:48.466Z,63.80
2017-09-10T15:55:23.358Z,64.30
2017-09-10T15:57:56.371Z,64.20
2017-09-10T16:00:28.095Z,63.90
2017-09-10T16:03:00.095Z,64.30
2017-09-10T16:05:32.072Z,64.00
2017-09-10T16:08:06.818Z,64.50
2017-09-10T16:10:42.947Z,64.50
2017-09-10T16:13:17.402Z,65.00
2017-09-10T16:15:50.984Z,64.10
2017-09-10T16:18:26.788Z,64.50
2017-09-10T16:21:00.703Z,64.50
2017-09-10T16:23:34.095Z,63.90
2017-09-10T16:26:07.358Z,64.40
2017-09-10T16:28:41.778Z,65.10
2017-09-10T16:31:14.885Z,65.00
2017-09-10T16:33:47.972Z,65.40
2017-09-10T16:36:20.070Z,64.70
2017-09-10T16:38:51.034Z,65.00
2017-09-10T16:41:24.359Z,64.70
2017-09-10T16:43:57.630Z,65.00
2017-09-10T16:46:30.715Z,65.20
2017-09-10T16:49:04.267Z,65.10
2017-09-10T16:51:36.485Z,65.00
2017-09-10T16:54:08.270Z,65.30
2017-09-10T16:56:40.773Z,65.80
2017-09-10T16:59:12.529Z,65.80
2017-09-10T17:01:43.936Z,66.30
2017-09-10T17:04:14.747Z,65.50
2017-09-10T17:06:47.830Z,65.60
2017-09-10T17:09:20.529Z,66.10
2017-09-10T17:11:51.027Z,66.10
2017-09-10T17:14:22.065Z,66.10
2017-09-10T17:16:53.590Z,66.20
2017-09-10T17:19:25.121Z,66.40
2017-09-10T17:21:55.666Z,66.30
2017-09-10T17:24:27.194Z,66.30
2017-09-10T17:26:57.865Z,66.00
2017-09-10T17:29:29.264Z,65.70
2017-09-10T17:32:00.719Z,65.80
2017-09-10T17:34:32.224Z,65.80
2017-09-10T17:37:04.361Z,65.60
2017-09-10T17:39:34.833Z,65.60
2017-09-10T17:42:06.853Z,65.60
2017-09-10T17:44:37.745Z,65.80
2017-09-10T17:47:09.268Z,66.00
2017-09-10T17:49:40.746Z,66.00
2017-09-10T17:52:12.161Z,65.40
2017-09-10T17:54:42.730Z,65.90
2017-09-10T17:57:13.496Z,65.90
2017-09-10T17:59:43.924Z,65.90
2017-09-10T18:02:15.549Z,66.10
2017-09-10T18:04:46.506Z,66.00
2017-09-10T18:07:16.915Z,66.00
2017-09-10T18:09:48.333Z,66.10
2017-09-10T18:12:19.248Z,65.60
2017-09-10T18:14:50.811Z,66.50
2017-09-10T18:17:22.021Z,66.20
2017-09-10T18:19:53.250Z,66.20
2017-09-10T18:22:23.703Z,66.20
2017-09-10T18:24:54.271Z,65.70
2017-09-10T18:27:24.862Z,66.20
2017-09-10T18:29:55.876Z,66.40
2017-09-10T18:32:31.085Z,66.00
2017-09-10T18:35:01.692Z,65.80
2017-09-10T18:37:32.335Z,66.00
2017-09-10T18:40:02.690Z,66.00
2017-09-10T18:42:33.860Z,66.10
2017-09-10T18:45:04.426Z,66.10
2017-09-10T18:47:35.010Z,65.90
2017-09-10T18:50:06.444Z,66.30
2017-09-10T18:52:37.101Z,66.00
2017-09-10T18:55:08.216Z,66.00
2017-09-10T18:57:39.029Z,66.20
2017-09-10T19:00:10.301Z,66.40
2017-09-10T19:02:41.661Z,66.30
2017-09-10T19:05:12.304Z,66.20
2017-09-10T19:07:42.990Z,66.40
2017-09-10T19:10:13.567Z,66.20
2017-09-10T19:12:44.212Z,66.30
2017-09-10T19:15:16.682Z,66.50
2017-09-10T19:17:47.794Z,66.40
2017-09-10T19:20:18.613Z,66.40
2017-09-10T19:22:49.783Z,66.40
2017-09-10T19:25:20.077Z,67.40
2017-09-10T19:27:51.527Z,66.70
2017-09-10T19:30:22.098Z,66.60
2017-09-10T19:32:52.726Z,66.60
2017-09-10T19:35:23.871Z,66.50
2017-09-10T19:44:06.777Z,66.70
2017-09-10T19:46:37.742Z,66.60
2017-09-10T19:49:08.442Z,66.80
2017-09-10T19:52:42.134Z,66.80
2017-09-10T19:55:12.790Z,66.70
2017-09-10T19:57:43.535Z,66.70
2017-09-10T20:00:15.696Z,66.70
2017-09-10T20:02:46.644Z,66.80
2017-09-10T20:05:17.077Z,66.80
2017-09-10T20:07:47.889Z,66.70
2017-09-10T20:10:19.682Z,66.80
2017-09-10T20:12:50.389Z,66.70
2017-09-10T20:15:21.345Z,66.90
2017-09-10T20:17:51.817Z,67.10
2017-09-10T20:20:23.292Z,66.80
2017-09-10T20:22:53.920Z,66.80
2017-09-10T20:25:26.236Z,67.20
2017-09-10T20:27:58.977Z,67.20
2017-09-10T20:30:29.534Z,67.10
2017-09-10T20:33:00.893Z,67.10
2017-09-10T20:35:32.405Z,67.00
2017-09-10T20:38:02.913Z,67.20
2017-09-10T20:40:34.074Z,67.10
2017-09-10T20:43:04.727Z,67.30
2017-09-10T20:45:35.250Z,67.20
2017-09-10T20:48:05.822Z,67.40
2017-09-10T20:50:36.582Z,67.40
2017-09-10T20:53:07.961Z,67.70
2017-09-10T20:55:38.513Z,67.70
2017-09-10T20:58:09.017Z,67.40
2017-09-10T21:00:39.571Z,67.40
2017-09-10T21:03:10.098Z,67.60
2017-09-10T21:05:40.835Z,67.50
2017-09-10T21:08:12.392Z,67.50
2017-09-10T21:10:42.912Z,67.80
2017-09-10T21:13:15.509Z,67.70
2017-09-10T21:15:46.426Z,67.90
2017-09-10T21:18:16.970Z,67.80
2017-09-10T21:20:47.833Z,67.90
2017-09-10T21:23:19.401Z,67.50
2017-09-10T21:25:50.062Z,67.60
2017-09-10T21:28:21.405Z,67.60
2017-09-10T21:30:52.749Z,67.70
2017-09-10T21:33:24.014Z,67.90
2017-09-10T21:35:54.632Z,67.90
2017-09-10T21:38:26.073Z,68.00
2017-09-10T21:40:56.456Z,68.00
2017-09-10T21:43:26.949Z,68.10
2017-09-10T21:45:57.877Z,68.10
2017-09-10T21:48:28.618Z,68.20
2017-09-10T21:50:59.170Z,68.30
2017-09-10T21:53:29.659Z,68.20
2017-09-10T21:56:00.207Z,68.20
2017-09-10T21:58:30.707Z,68.00
2017-09-10T22:01:01.972Z,68.40
2017-09-10T22:03:33.448Z,68.40
2017-09-10T22:06:03.929Z,68.30
2017-09-10T22:08:34.518Z,68.20
2017-09-10T22:11:04.941Z,68.20
2017-09-10T22:13:35.659Z,68.40
2017-09-10T22:16:06.061Z,68.40
2017-09-10T22:18:36.604Z,68.40
2017-09-10T22:21:07.117Z,68.30
2017-09-10T22:23:37.632Z,68.30
2017-09-10T22:26:08.188Z,68.60
2017-09-10T22:28:38.682Z,68.50
2017-09-10T22:31:09.244Z,68.50
2017-09-10T22:33:40.304Z,68.60
2017-09-10T22:36:11.023Z,68.50
2017-09-10T22:38:42.239Z,68.80
2017-09-10T22:41:12.796Z,68.80
2017-09-10T22:43:43.305Z,68.30
2017-09-10T22:46:14.305Z,68.70
2017-09-10T22:48:44.886Z,68.50
2017-09-10T22:51:16.436Z,68.90
2017-09-10T22:53:48.526Z,69.50
2017-09-10T22:56:19.015Z,68.80
2017-09-10T22:58:49.574Z,68.80
2017-09-10T23:01:20.191Z,69.00
2017-09-10T23:03:52.313Z,69.00
2017-09-10T23:06:23.791Z,69.00
2017-09-10T23:08:54.329Z,69.00
2017-09-10T23:11:24.867Z,68.90
2017-09-10T23:13:55.584Z,69.00
2017-09-10T23:16:26.256Z,69.00
2017-09-10T23:18:57.869Z,68.80
2017-09-10T23:21:28.431Z,68.80
2017-09-10T23:23:58.951Z,69.70
2017-09-10T23:26:29.693Z,68.90
2017-09-10T23:29:00.163Z,69.00
2017-09-10T23:31:30.716Z,69.00
2017-09-10T23:34:01.268Z,69.10
2017-09-10T23:36:31.862Z,69.10
2017-09-10T23:39:02.456Z,69.20
2017-09-10T23:41:33.678Z,69.00
2017-09-10T23:44:04.552Z,68.90
2017-09-10T23:46:35.247Z,69.10
2017-09-10T23:49:06.137Z,68.90
2017-09-10T23:51:37.748Z,69.20
2017-09-10T23:54:09.240Z,69.10
2017-09-10T23:56:39.732Z,69.10
2017-09-10T23:59:10.377Z,69.20
